sensor_id;sensor_type;location;lat;lon;timestamp;P1;durP1;ratioP1;P2;durP2;ratioP2
19595;SDS011;9945;46.010;8.946;2022-11-13T00:01:07;8.13;;;7.03;;
19595;SDS011;9945;46.010;8.946;2022-11-13T00:03:36;6.80;;;6.10;;
19595;SDS011;9945;46.010;8.946;2022-11-13T00:06:03;7.33;;;6.63;;
19595;SDS011;9945;46.010;8.946;2022-11-13T00:08:30;6.97;;;6.30;;
19595;SDS011;9945;46.010;8.946;2022-11-13T00:11:00;7.20;;;6.20;;
19595;SDS011;9945;46.010;8.946;2022-11-13T00:13:28;10.03;;;5.90;;
19595;SDS011;9945;46.010;8.946;2022-11-13T00:15:57;7.67;;;6.10;;
19595;SDS011;9945;46.010;8.946;2022-11-13T00:18:24;9.87;;;6.70;;
19595;SDS011;9945;46.010;8.946;2022-11-13T00:20:51;6.40;;;5.43;;
19595;SDS011;9945;46.010;8.946;2022-11-13T00:23:18;9.37;;;5.60;;
19595;SDS011;9945;46.010;8.946;2022-11-13T00:25:45;6.13;;;5.53;;
19595;SDS011;9945;46.010;8.946;2022-11-13T00:28:12;11.07;;;5.93;;
19595;SDS011;9945;46.010;8.946;2022-11-13T00:30:39;6.70;;;6.00;;
19595;SDS011;9945;46.010;8.946;2022-11-13T00:33:07;7.23;;;6.50;;
19595;SDS011;9945;46.010;8.946;2022-11-13T00:35:34;9.10;;;6.23;;
19595;SDS011;9945;46.010;8.946;2022-11-13T00:38:01;8.53;;;6.57;;
19595;SDS011;9945;46.010;8.946;2022-11-13T00:40:28;7.13;;;6.43;;
19595;SDS011;9945;46.010;8.946;2022-11-13T00:42:55;8.47;;;6.90;;
19595;SDS011;9945;46.010;8.946;2022-11-13T00:45:21;7.03;;;6.43;;
19595;SDS011;9945;46.010;8.946;2022-11-13T00:47:48;7.13;;;6.43;;
19595;SDS011;9945;46.010;8.946;2022-11-13T00:50:17;6.60;;;6.00;;
19595;SDS011;9945;46.010;8.946;2022-11-13T00:52:43;7.30;;;5.77;;
19595;SDS011;9945;46.010;8.946;2022-11-13T00:55:10;7.53;;;6.83;;
19595;SDS011;9945;46.010;8.946;2022-11-13T00:57:37;6.80;;;6.20;;
19595;SDS011;9945;46.010;8.946;2022-11-13T01:00:04;6.17;;;5.57;;
19595;SDS011;9945;46.010;8.946;2022-11-13T01:02:32;6.13;;;5.53;;
19595;SDS011;9945;46.010;8.946;2022-11-13T01:04:59;5.93;;;5.43;;
19595;SDS011;9945;46.010;8.946;2022-11-13T01:07:27;6.60;;;6.00;;
19595;SDS011;9945;46.010;8.946;2022-11-13T01:09:54;7.37;;;6.00;;
19595;SDS011;9945;46.010;8.946;2022-11-13T01:12:21;5.80;;;5.30;;
19595;SDS011;9945;46.010;8.946;2022-11-13T01:14:48;6.07;;;5.47;;
19595;SDS011;9945;46.010;8.946;2022-11-13T01:17:15;5.43;;;4.93;;
19595;SDS011;9945;46.010;8.946;2022-11-13T01:19:42;5.97;;;5.17;;
19595;SDS011;9945;46.010;8.946;2022-11-13T01:22:09;6.63;;;5.00;;
19595;SDS011;9945;46.010;8.946;2022-11-13T01:24:37;4.43;;;4.10;;
19595;SDS011;9945;46.010;8.946;2022-11-13T01:27:04;4.67;;;4.23;;
19595;SDS011;9945;46.010;8.946;2022-11-13T01:29:31;5.47;;;4.97;;
19595;SDS011;9945;46.010;8.946;2022-11-13T01:31:58;5.10;;;4.70;;
19595;SDS011;9945;46.010;8.946;2022-11-13T01:34:25;9.70;;;5.00;;
19595;SDS011;9945;46.010;8.946;2022-11-13T01:36:52;6.30;;;4.87;;
19595;SDS011;9945;46.010;8.946;2022-11-13T01:39:19;6.23;;;5.20;;
19595;SDS011;9945;46.010;8.946;2022-11-13T01:41:47;5.93;;;5.07;;
19595;SDS011;9945;46.010;8.946;2022-11-13T01:44:15;5.77;;;5.03;;
19595;SDS011;9945;46.010;8.946;2022-11-13T01:46:44;7.37;;;5.40;;
19595;SDS011;9945;46.010;8.946;2022-11-13T01:49:17;6.83;;;5.40;;
19595;SDS011;9945;46.010;8.946;2022-11-13T01:51:53;5.47;;;4.87;;
19595;SDS011;9945;46.010;8.946;2022-11-13T01:54:24;4.73;;;4.33;;
19595;SDS011;9945;46.010;8.946;2022-11-13T01:56:54;4.67;;;4.23;;
19595;SDS011;9945;46.010;8.946;2022-11-13T01:59:23;4.50;;;4.07;;
19595;SDS011;9945;46.010;8.946;2022-11-13T02:01:53;4.13;;;3.73;;
19595;SDS011;9945;46.010;8.946;2022-11-13T02:04:21;6.10;;;4.30;;
19595;SDS011;9945;46.010;8.946;2022-11-13T02:06:49;5.87;;;4.47;;
19595;SDS011;9945;46.010;8.946;2022-11-13T02:09:20;5.07;;;4.57;;
19595;SDS011;9945;46.010;8.946;2022-11-13T02:11:49;4.57;;;4.13;;
19595;SDS011;9945;46.010;8.946;2022-11-13T02:14:18;4.47;;;4.07;;
19595;SDS011;9945;46.010;8.946;2022-11-13T02:16:47;7.70;;;5.20;;
19595;SDS011;9945;46.010;8.946;2022-11-13T02:19:18;5.37;;;4.30;;
19595;SDS011;9945;46.010;8.946;2022-11-13T02:21:52;5.83;;;5.13;;
19595;SDS011;9945;46.010;8.946;2022-11-13T02:24:26;9.57;;;6.10;;
19595;SDS011;9945;46.010;8.946;2022-11-13T02:26:57;7.33;;;6.20;;
19595;SDS011;9945;46.010;8.946;2022-11-13T02:29:27;11.07;;;5.23;;
19595;SDS011;9945;46.010;8.946;2022-11-13T02:31:53;5.20;;;4.43;;
19595;SDS011;9945;46.010;8.946;2022-11-13T02:34:21;4.23;;;3.83;;
19595;SDS011;9945;46.010;8.946;2022-11-13T02:36:48;5.33;;;4.17;;
19595;SDS011;9945;46.010;8.946;2022-11-13T02:39:15;4.37;;;3.60;;
19595;SDS011;9945;46.010;8.946;2022-11-13T02:41:43;6.53;;;4.03;;
19595;SDS011;9945;46.010;8.946;2022-11-13T02:44:10;4.47;;;3.60;;
19595;SDS011;9945;46.010;8.946;2022-11-13T02:46:37;3.73;;;3.40;;
19595;SDS011;9945;46.010;8.946;2022-11-13T02:49:04;3.57;;;3.27;;
19595;SDS011;9945;46.010;8.946;2022-11-13T02:51:31;3.40;;;2.97;;
19595;SDS011;9945;46.010;8.946;2022-11-13T02:53:59;2.87;;;2.67;;
19595;SDS011;9945;46.010;8.946;2022-11-13T02:56:25;3.43;;;3.13;;
19595;SDS011;9945;46.010;8.946;2022-11-13T02:58:54;4.20;;;2.80;;
19595;SDS011;9945;46.010;8.946;2022-11-13T03:01:21;2.90;;;2.70;;
19595;SDS011;9945;46.010;8.946;2022-11-13T03:03:48;2.10;;;2.00;;
19595;SDS011;9945;46.010;8.946;2022-11-13T03:06:14;2.70;;;2.20;;
19595;SDS011;9945;46.010;8.946;2022-11-13T03:08:41;2.77;;;1.90;;
19595;SDS011;9945;46.010;8.946;2022-11-13T03:11:08;2.03;;;1.90;;
19595;SDS011;9945;46.010;8.946;2022-11-13T03:13:36;2.23;;;2.07;;
19595;SDS011;9945;46.010;8.946;2022-11-13T03:16:06;3.27;;;2.30;;
19595;SDS011;9945;46.010;8.946;2022-11-13T03:18:34;2.60;;;2.40;;
19595;SDS011;9945;46.010;8.946;2022-11-13T03:21:04;2.10;;;2.00;;
19595;SDS011;9945;46.010;8.946;2022-11-13T03:23:33;2.80;;;2.00;;
19595;SDS011;9945;46.010;8.946;2022-11-13T03:26:03;2.20;;;2.00;;
19595;SDS011;9945;46.010;8.946;2022-11-13T03:28:31;1.70;;;1.60;;
19595;SDS011;9945;46.010;8.946;2022-11-13T03:30:59;1.30;;;1.30;;
19595;SDS011;9945;46.010;8.946;2022-11-13T03:33:28;1.60;;;1.50;;
19595;SDS011;9945;46.010;8.946;2022-11-13T03:35:55;1.67;;;1.57;;
19595;SDS011;9945;46.010;8.946;2022-11-13T03:38:22;1.67;;;1.57;;
19595;SDS011;9945;46.010;8.946;2022-11-13T03:40:49;2.00;;;1.83;;
19595;SDS011;9945;46.010;8.946;2022-11-13T03:43:17;2.00;;;1.90;;
19595;SDS011;9945;46.010;8.946;2022-11-13T03:45:44;2.30;;;1.80;;
19595;SDS011;9945;46.010;8.946;2022-11-13T03:48:12;4.47;;;1.60;;
19595;SDS011;9945;46.010;8.946;2022-11-13T03:50:43;1.83;;;1.70;;
19595;SDS011;9945;46.010;8.946;2022-11-13T03:53:12;1.73;;;1.63;;
19595;SDS011;9945;46.010;8.946;2022-11-13T03:55:40;1.50;;;1.40;;
19595;SDS011;9945;46.010;8.946;2022-11-13T03:58:08;4.50;;;1.80;;
19595;SDS011;9945;46.010;8.946;2022-11-13T04:00:35;2.43;;;1.97;;
19595;SDS011;9945;46.010;8.946;2022-11-13T04:03:02;1.50;;;1.40;;
19595;SDS011;9945;46.010;8.946;2022-11-13T04:05:29;3.20;;;1.60;;
19595;SDS011;9945;46.010;8.946;2022-11-13T04:07:58;1.90;;;1.73;;
19595;SDS011;9945;46.010;8.946;2022-11-13T04:10:25;4.83;;;1.90;;
19595;SDS011;9945;46.010;8.946;2022-11-13T04:12:52;2.93;;;1.60;;
19595;SDS011;9945;46.010;8.946;2022-11-13T04:15:18;1.77;;;1.67;;
19595;SDS011;9945;46.010;8.946;2022-11-13T04:17:45;2.00;;;1.80;;
19595;SDS011;9945;46.010;8.946;2022-11-13T04:20:13;1.80;;;1.70;;
19595;SDS011;9945;46.010;8.946;2022-11-13T04:22:40;1.70;;;1.60;;
19595;SDS011;9945;46.010;8.946;2022-11-13T04:25:09;1.50;;;1.40;;
19595;SDS011;9945;46.010;8.946;2022-11-13T04:27:36;1.50;;;1.40;;
19595;SDS011;9945;46.010;8.946;2022-11-13T04:30:03;1.20;;;1.20;;
19595;SDS011;9945;46.010;8.946;2022-11-13T04:32:31;2.33;;;1.50;;
19595;SDS011;9945;46.010;8.946;2022-11-13T04:34:57;1.97;;;1.60;;
19595;SDS011;9945;46.010;8.946;2022-11-13T04:37:24;1.63;;;1.50;;
19595;SDS011;9945;46.010;8.946;2022-11-13T04:39:51;1.47;;;1.37;;
19595;SDS011;9945;46.010;8.946;2022-11-13T04:42:19;1.47;;;1.37;;
19595;SDS011;9945;46.010;8.946;2022-11-13T04:45:09;1.30;;;1.20;;
19595;SDS011;9945;46.010;8.946;2022-11-13T04:47:36;5.73;;;1.50;;
19595;SDS011;9945;46.010;8.946;2022-11-13T04:50:03;1.80;;;1.70;;
19595;SDS011;9945;46.010;8.946;2022-11-13T04:52:31;1.43;;;1.33;;
19595;SDS011;9945;46.010;8.946;2022-11-13T04:54:58;1.20;;;1.20;;
19595;SDS011;9945;46.010;8.946;2022-11-13T04:57:26;1.73;;;1.07;;
19595;SDS011;9945;46.010;8.946;2022-11-13T04:59:53;1.70;;;1.60;;
19595;SDS011;9945;46.010;8.946;2022-11-13T05:02:21;1.97;;;1.30;;
19595;SDS011;9945;46.010;8.946;2022-11-13T05:04:48;1.20;;;1.10;;
19595;SDS011;9945;46.010;8.946;2022-11-13T05:07:15;1.20;;;1.10;;
19595;SDS011;9945;46.010;8.946;2022-11-13T05:09:42;1.60;;;1.50;;
19595;SDS011;9945;46.010;8.946;2022-11-13T05:12:09;1.00;;;1.00;;
19595;SDS011;9945;46.010;8.946;2022-11-13T05:14:37;2.60;;;1.00;;
19595;SDS011;9945;46.010;8.946;2022-11-13T05:17:06;1.17;;;1.17;;
19595;SDS011;9945;46.010;8.946;2022-11-13T05:19:35;1.07;;;1.07;;
19595;SDS011;9945;46.010;8.946;2022-11-13T05:22:03;1.07;;;1.07;;
19595;SDS011;9945;46.010;8.946;2022-11-13T05:24:30;1.00;;;1.00;;
19595;SDS011;9945;46.010;8.946;2022-11-13T05:26:57;1.17;;;1.07;;
19595;SDS011;9945;46.010;8.946;2022-11-13T05:29:24;2.00;;;1.00;;
19595;SDS011;9945;46.010;8.946;2022-11-13T05:31:52;1.13;;;1.03;;
19595;SDS011;9945;46.010;8.946;2022-11-13T05:34:19;1.10;;;1.10;;
19595;SDS011;9945;46.010;8.946;2022-11-13T05:36:46;2.13;;;1.43;;
19595;SDS011;9945;46.010;8.946;2022-11-13T05:39:13;1.30;;;1.20;;
19595;SDS011;9945;46.010;8.946;2022-11-13T05:41:40;2.20;;;1.10;;
19595;SDS011;9945;46.010;8.946;2022-11-13T05:44:07;5.53;;;1.20;;
19595;SDS011;9945;46.010;8.946;2022-11-13T05:46:34;1.10;;;1.10;;
19595;SDS011;9945;46.010;8.946;2022-11-13T05:49:02;1.67;;;1.10;;
19595;SDS011;9945;46.010;8.946;2022-11-13T05:51:30;1.30;;;1.23;;
19595;SDS011;9945;46.010;8.946;2022-11-13T05:53:58;1.53;;;1.43;;
19595;SDS011;9945;46.010;8.946;2022-11-13T05:56:26;1.40;;;1.30;;
19595;SDS011;9945;46.010;8.946;2022-11-13T05:58:55;1.17;;;1.17;;
19595;SDS011;9945;46.010;8.946;2022-11-13T06:01:23;1.50;;;1.40;;
19595;SDS011;9945;46.010;8.946;2022-11-13T06:03:53;1.20;;;1.20;;
19595;SDS011;9945;46.010;8.946;2022-11-13T06:06:22;1.60;;;1.50;;
19595;SDS011;9945;46.010;8.946;2022-11-13T06:08:51;1.33;;;1.33;;
19595;SDS011;9945;46.010;8.946;2022-11-13T06:11:19;4.07;;;1.33;;
19595;SDS011;9945;46.010;8.946;2022-11-13T06:13:48;1.47;;;1.37;;
19595;SDS011;9945;46.010;8.946;2022-11-13T06:16:17;1.00;;;1.00;;
19595;SDS011;9945;46.010;8.946;2022-11-13T06:18:46;1.37;;;1.27;;
19595;SDS011;9945;46.010;8.946;2022-11-13T06:21:14;1.10;;;1.07;;
19595;SDS011;9945;46.010;8.946;2022-11-13T06:23:44;5.50;;;1.37;;
19595;SDS011;9945;46.010;8.946;2022-11-13T06:26:11;1.67;;;1.37;;
19595;SDS011;9945;46.010;8.946;2022-11-13T06:28:39;1.30;;;1.20;;
19595;SDS011;9945;46.010;8.946;2022-11-13T06:31:07;1.20;;;1.10;;
19595;SDS011;9945;46.010;8.946;2022-11-13T06:33:36;2.63;;;1.20;;
19595;SDS011;9945;46.010;8.946;2022-11-13T06:36:04;1.10;;;1.10;;
19595;SDS011;9945;46.010;8.946;2022-11-13T06:38:32;1.37;;;1.27;;
19595;SDS011;9945;46.010;8.946;2022-11-13T06:41:02;2.43;;;1.10;;
19595;SDS011;9945;46.010;8.946;2022-11-13T06:43:30;1.53;;;1.43;;
19595;SDS011;9945;46.010;8.946;2022-11-13T06:45:57;3.30;;;1.60;;
19595;SDS011;9945;46.010;8.946;2022-11-13T06:48:28;2.17;;;1.83;;
19595;SDS011;9945;46.010;8.946;2022-11-13T06:50:54;1.30;;;1.20;;
19595;SDS011;9945;46.010;8.946;2022-11-13T06:53:26;1.33;;;1.30;;
19595;SDS011;9945;46.010;8.946;2022-11-13T06:55:53;1.63;;;1.20;;
19595;SDS011;9945;46.010;8.946;2022-11-13T06:58:21;1.20;;;1.10;;
19595;SDS011;9945;46.010;8.946;2022-11-13T07:00:48;1.47;;;1.37;;
19595;SDS011;9945;46.010;8.946;2022-11-13T07:03:15;1.60;;;1.40;;
19595;SDS011;9945;46.010;8.946;2022-11-13T07:05:43;1.50;;;1.40;;
19595;SDS011;9945;46.010;8.946;2022-11-13T07:08:11;1.50;;;1.40;;
19595;SDS011;9945;46.010;8.946;2022-11-13T07:10:38;1.57;;;1.47;;
19595;SDS011;9945;46.010;8.946;2022-11-13T07:13:06;2.10;;;1.50;;
19595;SDS011;9945;46.010;8.946;2022-11-13T07:15:34;2.20;;;1.30;;
19595;SDS011;9945;46.010;8.946;2022-11-13T07:18:02;2.57;;;1.50;;
19595;SDS011;9945;46.010;8.946;2022-11-13T07:20:30;1.23;;;1.20;;
19595;SDS011;9945;46.010;8.946;2022-11-13T07:22:58;3.23;;;1.37;;
19595;SDS011;9945;46.010;8.946;2022-11-13T07:25:27;1.33;;;1.23;;
19595;SDS011;9945;46.010;8.946;2022-11-13T07:27:54;1.47;;;1.47;;
19595;SDS011;9945;46.010;8.946;2022-11-13T07:30:21;2.93;;;1.33;;
19595;SDS011;9945;46.010;8.946;2022-11-13T07:32:50;1.60;;;1.50;;
19595;SDS011;9945;46.010;8.946;2022-11-13T07:35:17;1.50;;;1.40;;
19595;SDS011;9945;46.010;8.946;2022-11-13T07:37:44;5.53;;;1.70;;
19595;SDS011;9945;46.010;8.946;2022-11-13T07:40:11;2.20;;;1.40;;
19595;SDS011;9945;46.010;8.946;2022-11-13T07:42:38;1.60;;;1.50;;
19595;SDS011;9945;46.010;8.946;2022-11-13T07:45:05;2.63;;;1.33;;
19595;SDS011;9945;46.010;8.946;2022-11-13T07:47:33;1.47;;;1.30;;
19595;SDS011;9945;46.010;8.946;2022-11-13T07:50:01;2.33;;;2.13;;
19595;SDS011;9945;46.010;8.946;2022-11-13T07:52:28;1.60;;;1.50;;
19595;SDS011;9945;46.010;8.946;2022-11-13T07:54:55;1.73;;;1.63;;
19595;SDS011;9945;46.010;8.946;2022-11-13T07:57:22;2.17;;;1.63;;
19595;SDS011;9945;46.010;8.946;2022-11-13T07:59:51;2.78;;;2.58;;
19595;SDS011;9945;46.010;8.946;2022-11-13T08:02:18;1.87;;;1.60;;
19595;SDS011;9945;46.010;8.946;2022-11-13T08:04:45;5.10;;;1.38;;
19595;SDS011;9945;46.010;8.946;2022-11-13T08:07:13;1.38;;;1.27;;
19595;SDS011;9945;46.010;8.946;2022-11-13T08:09:40;1.08;;;1.08;;
19595;SDS011;9945;46.010;8.946;2022-11-13T08:12:07;1.80;;;1.20;;
19595;SDS011;9945;46.010;8.946;2022-11-13T08:14:34;1.40;;;1.30;;
19595;SDS011;9945;46.010;8.946;2022-11-13T08:17:01;1.50;;;1.40;;
19595;SDS011;9945;46.010;8.946;2022-11-13T08:19:27;3.00;;;1.73;;
19595;SDS011;9945;46.010;8.946;2022-11-13T08:21:54;1.13;;;1.13;;
19595;SDS011;9945;46.010;8.946;2022-11-13T08:24:22;1.35;;;1.35;;
19595;SDS011;9945;46.010;8.946;2022-11-13T08:26:49;1.73;;;1.63;;
19595;SDS011;9945;46.010;8.946;2022-11-13T08:29:16;4.88;;;1.77;;
19595;SDS011;9945;46.010;8.946;2022-11-13T08:31:43;4.03;;;1.60;;
19595;SDS011;9945;46.010;8.946;2022-11-13T08:34:10;2.10;;;1.60;;
19595;SDS011;9945;46.010;8.946;2022-11-13T08:36:37;2.67;;;1.67;;
19595;SDS011;9945;46.010;8.946;2022-11-13T08:39:04;2.60;;;1.73;;
19595;SDS011;9945;46.010;8.946;2022-11-13T08:41:32;1.67;;;1.52;;
19595;SDS011;9945;46.010;8.946;2022-11-13T08:43:59;4.40;;;1.70;;
19595;SDS011;9945;46.010;8.946;2022-11-13T08:46:26;2.13;;;1.92;;
19595;SDS011;9945;46.010;8.946;2022-11-13T08:48:52;2.65;;;1.67;;
19595;SDS011;9945;46.010;8.946;2022-11-13T08:51:19;3.63;;;2.00;;
19595;SDS011;9945;46.010;8.946;2022-11-13T08:53:46;3.05;;;2.17;;
19595;SDS011;9945;46.010;8.946;2022-11-13T08:56:13;3.92;;;2.20;;
19595;SDS011;9945;46.010;8.946;2022-11-13T08:58:42;2.22;;;1.98;;
19595;SDS011;9945;46.010;8.946;2022-11-13T09:01:08;2.65;;;2.00;;
19595;SDS011;9945;46.010;8.946;2022-11-13T09:03:35;5.07;;;2.55;;
19595;SDS011;9945;46.010;8.946;2022-11-13T09:06:03;3.22;;;2.13;;
19595;SDS011;9945;46.010;8.946;2022-11-13T09:08:31;2.17;;;1.98;;
19595;SDS011;9945;46.010;8.946;2022-11-13T09:11:00;2.33;;;1.98;;
19595;SDS011;9945;46.010;8.946;2022-11-13T09:13:28;1.90;;;1.80;;
19595;SDS011;9945;46.010;8.946;2022-11-13T09:15:57;4.05;;;2.10;;
19595;SDS011;9945;46.010;8.946;2022-11-13T09:18:24;2.13;;;2.00;;
19595;SDS011;9945;46.010;8.946;2022-11-13T09:20:51;3.35;;;2.10;;
19595;SDS011;9945;46.010;8.946;2022-11-13T09:23:18;2.75;;;2.17;;
19595;SDS011;9945;46.010;8.946;2022-11-13T09:25:46;4.55;;;2.33;;
19595;SDS011;9945;46.010;8.946;2022-11-13T09:28:13;4.32;;;3.10;;
19595;SDS011;9945;46.010;8.946;2022-11-13T09:30:40;4.53;;;2.22;;
19595;SDS011;9945;46.010;8.946;2022-11-13T09:33:08;2.90;;;2.38;;
19595;SDS011;9945;46.010;8.946;2022-11-13T09:35:39;3.15;;;2.53;;
19595;SDS011;9945;46.010;8.946;2022-11-13T09:38:07;2.20;;;2.08;;
19595;SDS011;9945;46.010;8.946;2022-11-13T09:40:37;3.28;;;2.17;;
19595;SDS011;9945;46.010;8.946;2022-11-13T09:43:09;2.75;;;2.20;;
19595;SDS011;9945;46.010;8.946;2022-11-13T09:45:43;3.55;;;2.60;;
19595;SDS011;9945;46.010;8.946;2022-11-13T09:48:15;6.22;;;5.70;;
19595;SDS011;9945;46.010;8.946;2022-11-13T09:50:55;4.13;;;2.90;;
19595;SDS011;9945;46.010;8.946;2022-11-13T09:53:24;3.70;;;2.47;;
19595;SDS011;9945;46.010;8.946;2022-11-13T09:56:01;3.08;;;2.60;;
19595;SDS011;9945;46.010;8.946;2022-11-13T09:58:36;3.88;;;2.90;;
19595;SDS011;9945;46.010;8.946;2022-11-13T10:01:13;3.10;;;2.80;;
19595;SDS011;9945;46.010;8.946;2022-11-13T10:03:51;5.72;;;2.58;;
19595;SDS011;9945;46.010;8.946;2022-11-13T10:06:25;6.13;;;3.10;;
19595;SDS011;9945;46.010;8.946;2022-11-13T10:09:00;3.00;;;2.65;;
19595;SDS011;9945;46.010;8.946;2022-11-13T10:11:36;4.55;;;2.97;;
19595;SDS011;9945;46.010;8.946;2022-11-13T10:14:08;2.97;;;2.50;;
19595;SDS011;9945;46.010;8.946;2022-11-13T10:16:41;4.70;;;3.00;;
19595;SDS011;9945;46.010;8.946;2022-11-13T10:19:14;4.43;;;2.97;;
19595;SDS011;9945;46.010;8.946;2022-11-13T10:21:48;3.03;;;2.80;;
19595;SDS011;9945;46.010;8.946;2022-11-13T10:24:20;5.97;;;2.60;;
19595;SDS011;9945;46.010;8.946;2022-11-13T10:26:50;4.80;;;3.63;;
19595;SDS011;9945;46.010;8.946;2022-11-13T10:29:20;3.53;;;2.90;;
19595;SDS011;9945;46.010;8.946;2022-11-13T10:31:48;3.17;;;2.88;;
19595;SDS011;9945;46.010;8.946;2022-11-13T10:34:18;3.03;;;2.83;;
19595;SDS011;9945;46.010;8.946;2022-11-13T10:36:50;4.13;;;3.08;;
19595;SDS011;9945;46.010;8.946;2022-11-13T10:39:26;4.50;;;2.95;;
19595;SDS011;9945;46.010;8.946;2022-11-13T10:41:53;3.25;;;2.95;;
19595;SDS011;9945;46.010;8.946;2022-11-13T10:44:21;3.28;;;2.97;;
19595;SDS011;9945;46.010;8.946;2022-11-13T10:47:02;3.25;;;2.92;;
19595;SDS011;9945;46.010;8.946;2022-11-13T10:49:32;3.03;;;2.47;;
19595;SDS011;9945;46.010;8.946;2022-11-13T10:51:59;5.20;;;2.80;;
19595;SDS011;9945;46.010;8.946;2022-11-13T10:54:27;2.70;;;2.47;;
19595;SDS011;9945;46.010;8.946;2022-11-13T10:56:55;4.25;;;2.80;;
19595;SDS011;9945;46.010;8.946;2022-11-13T10:59:24;4.63;;;4.22;;
19595;SDS011;9945;46.010;8.946;2022-11-13T11:01:51;2.88;;;2.67;;
19595;SDS011;9945;46.010;8.946;2022-11-13T11:04:19;2.92;;;2.72;;
19595;SDS011;9945;46.010;8.946;2022-11-13T11:06:49;3.10;;;2.90;;
19595;SDS011;9945;46.010;8.946;2022-11-13T11:09:18;4.90;;;2.90;;
19595;SDS011;9945;46.010;8.946;2022-11-13T11:11:58;3.00;;;2.70;;
19595;SDS011;9945;46.010;8.946;2022-11-13T11:17:58;11.40;;;2.97;;
19595;SDS011;9945;46.010;8.946;2022-11-13T11:23:18;2.80;;;2.60;;
19595;SDS011;9945;46.010;8.946;2022-11-13T11:25:53;3.83;;;2.78;;
19595;SDS011;9945;46.010;8.946;2022-11-13T11:28:27;3.30;;;3.05;;
19595;SDS011;9945;46.010;8.946;2022-11-13T11:30:59;2.90;;;2.65;;
19595;SDS011;9945;46.010;8.946;2022-11-13T11:33:35;3.08;;;2.78;;
19595;SDS011;9945;46.010;8.946;2022-11-13T11:36:12;3.13;;;2.85;;
19595;SDS011;9945;46.010;8.946;2022-11-13T11:38:49;3.30;;;2.50;;
19595;SDS011;9945;46.010;8.946;2022-11-13T11:41:23;2.70;;;2.50;;
19595;SDS011;9945;46.010;8.946;2022-11-13T11:43:58;6.30;;;2.67;;
19595;SDS011;9945;46.010;8.946;2022-11-13T11:46:29;2.40;;;2.20;;
19595;SDS011;9945;46.010;8.946;2022-11-13T11:48:58;2.95;;;2.75;;
19595;SDS011;9945;46.010;8.946;2022-11-13T11:51:29;4.03;;;2.50;;
19595;SDS011;9945;46.010;8.946;2022-11-13T11:54:01;3.25;;;2.72;;
19595;SDS011;9945;46.010;8.946;2022-11-13T11:56:38;2.80;;;2.60;;
19595;SDS011;9945;46.010;8.946;2022-11-13T11:59:27;2.33;;;2.22;;
19595;SDS011;9945;46.010;8.946;2022-11-13T12:02:19;3.55;;;2.70;;
19595;SDS011;9945;46.010;8.946;2022-11-13T12:05:03;2.95;;;2.40;;
19595;SDS011;9945;46.010;8.946;2022-11-13T12:07:44;3.67;;;2.50;;
19595;SDS011;9945;46.010;8.946;2022-11-13T12:10:25;3.35;;;2.85;;
19595;SDS011;9945;46.010;8.946;2022-11-13T12:13:04;3.20;;;2.50;;
19595;SDS011;9945;46.010;8.946;2022-11-13T12:15:45;3.10;;;2.80;;
19595;SDS011;9945;46.010;8.946;2022-11-13T12:18:19;2.78;;;2.47;;
19595;SDS011;9945;46.010;8.946;2022-11-13T12:20:55;2.75;;;2.55;;
19595;SDS011;9945;46.010;8.946;2022-11-13T12:23:33;6.90;;;3.08;;
19595;SDS011;9945;46.010;8.946;2022-11-13T12:26:13;5.53;;;2.50;;
19595;SDS011;9945;46.010;8.946;2022-11-13T12:28:47;2.75;;;2.50;;
19595;SDS011;9945;46.010;8.946;2022-11-13T12:31:20;2.08;;;1.98;;
19595;SDS011;9945;46.010;8.946;2022-11-13T12:34:06;4.85;;;3.03;;
19595;SDS011;9945;46.010;8.946;2022-11-13T12:36:40;2.63;;;2.42;;
19595;SDS011;9945;46.010;8.946;2022-11-13T12:39:12;3.95;;;2.55;;
19595;SDS011;9945;46.010;8.946;2022-11-13T12:41:55;2.90;;;2.60;;
19595;SDS011;9945;46.010;8.946;2022-11-13T12:44:26;4.80;;;2.60;;
19595;SDS011;9945;46.010;8.946;2022-11-13T12:46:55;2.60;;;2.40;;
19595;SDS011;9945;46.010;8.946;2022-11-13T12:49:26;2.67;;;2.35;;
19595;SDS011;9945;46.010;8.946;2022-11-13T12:51:57;2.35;;;2.25;;
19595;SDS011;9945;46.010;8.946;2022-11-13T12:54:26;3.72;;;2.15;;
19595;SDS011;9945;46.010;8.946;2022-11-13T12:59:48;3.53;;;2.40;;
19595;SDS011;9945;46.010;8.946;2022-11-13T13:02:26;3.03;;;2.72;;
19595;SDS011;9945;46.010;8.946;2022-11-13T13:05:01;2.72;;;2.53;;
19595;SDS011;9945;46.010;8.946;2022-11-13T13:07:52;3.20;;;2.90;;
19595;SDS011;9945;46.010;8.946;2022-11-13T13:10:35;3.95;;;2.70;;
19595;SDS011;9945;46.010;8.946;2022-11-13T13:13:16;2.40;;;2.20;;
19595;SDS011;9945;46.010;8.946;2022-11-13T13:15:52;2.33;;;2.17;;
19595;SDS011;9945;46.010;8.946;2022-11-13T13:18:26;3.03;;;2.83;;
19595;SDS011;9945;46.010;8.946;2022-11-13T13:20:58;2.90;;;2.55;;
19595;SDS011;9945;46.010;8.946;2022-11-13T13:23:30;6.07;;;2.40;;
19595;SDS011;9945;46.010;8.946;2022-11-13T13:26:02;2.80;;;2.60;;
19595;SDS011;9945;46.010;8.946;2022-11-13T13:28:32;7.43;;;2.70;;
19595;SDS011;9945;46.010;8.946;2022-11-13T13:31:06;2.50;;;2.30;;
19595;SDS011;9945;46.010;8.946;2022-11-13T13:33:43;3.38;;;2.38;;
19595;SDS011;9945;46.010;8.946;2022-11-13T13:36:21;3.17;;;2.40;;
19595;SDS011;9945;46.010;8.946;2022-11-13T13:38:57;3.25;;;2.47;;
19595;SDS011;9945;46.010;8.946;2022-11-13T13:41:34;3.42;;;2.60;;
19595;SDS011;9945;46.010;8.946;2022-11-13T13:47:01;3.13;;;2.33;;
19595;SDS011;9945;46.010;8.946;2022-11-13T13:49:32;3.00;;;2.05;;
19595;SDS011;9945;46.010;8.946;2022-11-13T13:51:59;5.70;;;2.40;;
19595;SDS011;9945;46.010;8.946;2022-11-13T13:54:26;3.78;;;2.65;;
19595;SDS011;9945;46.010;8.946;2022-11-13T13:56:56;3.38;;;1.90;;
19595;SDS011;9945;46.010;8.946;2022-11-13T13:59:25;2.50;;;2.30;;
19595;SDS011;9945;46.010;8.946;2022-11-13T14:01:57;3.58;;;2.40;;
19595;SDS011;9945;46.010;8.946;2022-11-13T14:04:26;2.38;;;2.17;;
19595;SDS011;9945;46.010;8.946;2022-11-13T14:06:55;2.65;;;2.45;;
19595;SDS011;9945;46.010;8.946;2022-11-13T14:09:24;3.83;;;2.25;;
19595;SDS011;9945;46.010;8.946;2022-11-13T14:11:57;2.65;;;2.45;;
19595;SDS011;9945;46.010;8.946;2022-11-13T14:14:25;2.50;;;2.30;;
19595;SDS011;9945;46.010;8.946;2022-11-13T14:16:53;3.88;;;2.20;;
19595;SDS011;9945;46.010;8.946;2022-11-13T14:19:22;3.03;;;2.25;;
19595;SDS011;9945;46.010;8.946;2022-11-13T14:21:51;2.45;;;2.25;;
19595;SDS011;9945;46.010;8.946;2022-11-13T14:24:20;2.63;;;2.42;;
19595;SDS011;9945;46.010;8.946;2022-11-13T14:26:49;4.18;;;3.03;;
19595;SDS011;9945;46.010;8.946;2022-11-13T14:29:22;3.10;;;2.90;;
19595;SDS011;9945;46.010;8.946;2022-11-13T14:32:04;2.70;;;2.40;;
19595;SDS011;9945;46.010;8.946;2022-11-13T14:34:36;4.72;;;2.65;;
19595;SDS011;9945;46.010;8.946;2022-11-13T14:37:17;3.75;;;2.22;;
19595;SDS011;9945;46.010;8.946;2022-11-13T14:39:48;3.70;;;2.60;;
19595;SDS011;9945;46.010;8.946;2022-11-13T14:42:17;3.45;;;2.80;;
19595;SDS011;9945;46.010;8.946;2022-11-13T14:44:47;2.85;;;2.50;;
19595;SDS011;9945;46.010;8.946;2022-11-13T14:47:21;2.85;;;2.55;;
19595;SDS011;9945;46.010;8.946;2022-11-13T14:49:51;3.17;;;2.80;;
19595;SDS011;9945;46.010;8.946;2022-11-13T14:52:22;3.03;;;2.72;;
19595;SDS011;9945;46.010;8.946;2022-11-13T14:54:59;2.95;;;2.33;;
19595;SDS011;9945;46.010;8.946;2022-11-13T14:57:27;3.63;;;2.58;;
19595;SDS011;9945;46.010;8.946;2022-11-13T14:59:54;3.55;;;2.40;;
19595;SDS011;9945;46.010;8.946;2022-11-13T15:02:21;2.88;;;2.30;;
19595;SDS011;9945;46.010;8.946;2022-11-13T15:04:48;2.50;;;2.30;;
19595;SDS011;9945;46.010;8.946;2022-11-13T15:07:22;2.70;;;2.50;;
19595;SDS011;9945;46.010;8.946;2022-11-13T15:09:53;4.43;;;2.20;;
19595;SDS011;9945;46.010;8.946;2022-11-13T15:12:21;3.03;;;2.60;;
19595;SDS011;9945;46.010;8.946;2022-11-13T15:14:48;2.97;;;2.60;;
19595;SDS011;9945;46.010;8.946;2022-11-13T15:17:16;2.60;;;2.40;;
19595;SDS011;9945;46.010;8.946;2022-11-13T15:19:45;2.92;;;2.63;;
19595;SDS011;9945;46.010;8.946;2022-11-13T15:22:13;3.58;;;2.83;;
19595;SDS011;9945;46.010;8.946;2022-11-13T15:24:42;3.28;;;2.67;;
19595;SDS011;9945;46.010;8.946;2022-11-13T15:27:09;2.55;;;2.35;;